Time;durP1;ratioP1;P1;durP2;ratioP2;P2;SDS_P1;SDS_P2;PMS_P1;PMS_P2;Temp;Humidity;BMP_temperature;BMP_pressure;BME280_temperature;BME280_humidity;BME280_pressure;Samples;Min_cycle;Max_cycle;Signal;HPM_P1;HPM_P2
2022/04/02 00:00:00;;;;;;;423.05;112.18;;;0.70;99.90;;;-0.76;100.00;96138.84;4991581;28;20454;-75
2022/04/02 00:02:26;;;;;;;435.17;117.40;;;0.70;99.90;;;-0.75;100.00;96140.44;4991235;28;20493;-76
2022/04/02 00:04:52;;;;;;;448.35;112.25;;;0.70;99.90;;;-0.76;100.00;96141.44;4991569;28;20481;-76
2022/04/02 00:07:18;;;;;;;442.65;114.20;;;0.70;99.90;;;-0.76;100.00;96137.06;4991405;28;20413;-76
2022/04/02 00:09:44;;;;;;;463.42;122.55;;;0.70;99.90;;;-0.79;100.00;96140.84;4991472;28;20410;-76
2022/04/02 00:12:12;;;;;;;417.60;110.65;;;0.70;99.90;;;-0.80;100.00;96141.84;4991067;28;20406;-76
2022/04/02 00:14:38;;;;;;;423.05;116.43;;;0.70;99.90;;;-0.79;100.00;96137.47;4991302;28;20450;-76
2022/04/02 00:17:04;;;;;;;455.37;114.47;;;0.70;99.90;;;-0.77;100.00;96134.66;4991478;28;20402;-76
2022/04/02 00:19:30;;;;;;;452.60;115.32;;;0.70;99.90;;;-0.76;100.00;96129.25;4988023;28;20430;-76
2022/04/02 00:21:57;;;;;;;460.27;118.95;;;0.70;99.90;;;-0.74;100.00;96136.81;4987841;28;20410;-76
2022/04/02 00:24:23;;;;;;;467.90;117.25;;;0.70;99.90;;;-0.76;100.00;96137.06;4991077;28;20402;-76
2022/04/02 00:26:48;;;;;;;454.75;117.63;;;0.70;99.90;;;-0.75;100.00;96137.84;4991122;28;20406;-76
2022/04/02 00:29:16;;;;;;;425.97;121.80;;;0.70;99.90;;;-0.81;100.00;96135.06;4990857;28;20410;-76
2022/04/02 00:31:43;;;;;;;485.60;124.20;;;0.70;99.90;;;-0.78;100.00;96139.06;4990757;28;20406;-76
2022/04/02 00:34:09;;;;;;;465.83;121.20;;;0.70;99.90;;;-0.75;100.00;96145.66;4991183;28;20438;-76
2022/04/02 00:36:37;;;;;;;451.35;118.95;;;0.70;99.90;;;-0.77;100.00;96143.25;4991146;28;20430;-75
2022/04/02 00:39:05;;;;;;;470.10;118.55;;;0.70;99.90;;;-0.75;100.00;96140.44;5006061;28;20420;-76
2022/04/02 00:41:31;;;;;;;466.63;117.40;;;0.70;99.90;;;-0.75;100.00;96140.44;4990621;28;20413;-76
2022/04/02 00:44:00;;;;;;;462.75;118.57;;;0.70;99.90;;;-0.75;100.00;96143.81;4990868;28;20409;-76
2022/04/02 00:46:27;;;;;;;454.08;111.32;;;0.70;99.90;;;-0.74;100.00;96145.41;4991091;28;20401;-75
2022/04/02 00:48:54;;;;;;;452.23;116.28;;;0.70;99.90;;;-0.71;100.00;96145.00;4990745;28;20446;-75
2022/04/02 00:51:22;;;;;;;454.13;121.88;;;0.70;99.90;;;-0.71;100.00;96147.59;4990585;28;20402;-75
2022/04/02 00:53:51;;;;;;;485.27;128.43;;;0.80;99.90;;;-0.73;100.00;96138.41;4991055;28;20406;-75
2022/04/02 00:56:18;;;;;;;488.63;127.45;;;0.70;99.90;;;-0.74;100.00;96134.22;4990882;28;20508;-75
2022/04/02 00:58:45;;;;;;;485.70;125.07;;;0.70;99.90;;;-0.74;100.00;96136.81;4990488;28;20904;-76
2022/04/02 01:01:12;;;;;;;455.03;121.93;;;0.70;99.90;;;-0.73;100.00;96135.81;4989190;28;20406;-75
2022/04/02 01:03:39;;;;;;;434.50;121.88;;;0.70;99.90;;;-0.76;100.00;96139.66;4990972;28;20518;-76
2022/04/02 01:06:08;;;;;;;434.63;124.75;;;0.70;99.90;;;-0.80;100.00;96141.84;4990975;28;20434;-75
2022/04/02 01:08:34;;;;;;;475.02;126.18;;;0.70;99.90;;;-0.77;100.00;96137.25;4986424;28;20414;-75
2022/04/02 01:11:00;;;;;;;440.40;127.43;;;0.70;99.90;;;-0.81;100.00;96137.66;4989397;28;20417;-75
2022/04/02 01:13:27;;;;;;;461.38;121.70;;;0.70;99.90;;;-0.77;100.00;96137.25;4990841;28;20469;-75
2022/04/02 01:15:53;;;;;;;422.90;116.73;;;0.70;99.90;;;-0.76;100.00;96141.44;4990826;28;21014;-76
2022/04/02 01:18:19;;;;;;;437.13;115.85;;;0.70;99.90;;;-0.73;100.00;96143.59;4990774;28;20403;-75
2022/04/02 01:20:48;;;;;;;432.20;123.38;;;0.70;99.90;;;-0.75;100.00;96143.06;4990215;28;20514;-75
2022/04/02 01:23:15;;;;;;;433.70;124.15;;;0.70;99.90;;;-0.76;100.00;96151.84;4982968;28;20469;-75
2022/04/02 01:25:41;;;;;;;424.63;120.93;;;0.70;99.90;;;-0.74;100.00;96148.00;4990623;28;20489;-75
2022/04/02 01:28:07;;;;;;;414.85;120.82;;;0.70;99.90;;;-0.75;100.00;96143.06;4990624;28;20405;-75
2022/04/02 01:30:33;;;;;;;429.83;120.85;;;0.70;99.90;;;-0.75;100.00;96149.00;4990122;28;20501;-76
2022/04/02 01:32:59;;;;;;;440.85;125.22;;;0.70;99.90;;;-0.74;100.00;96153.22;4990571;28;20403;-75
2022/04/02 01:35:26;;;;;;;417.03;121.60;;;0.70;99.90;;;-0.73;100.00;96156.59;4990356;28;20418;-76
2022/04/02 01:37:52;;;;;;;425.52;122.68;;;0.70;99.90;;;-0.75;100.00;96159.41;4990388;28;20417;-75
2022/04/02 01:40:20;;;;;;;462.92;120.93;;;0.70;99.90;;;-0.73;100.00;96159.19;4989995;28;20474;-75
2022/04/02 01:42:47;;;;;;;404.75;111.57;;;0.70;99.90;;;-0.73;100.00;96160.00;4990680;28;20741;-74
2022/04/02 01:45:15;;;;;;;406.80;117.75;;;0.70;99.90;;;-0.74;100.00;96147.22;4990518;28;20434;-75
2022/04/02 01:47:41;;;;;;;404.40;116.82;;;0.70;99.90;;;-0.75;100.00;96151.59;4990289;28;20410;-75
2022/04/02 01:50:10;;;;;;;358.90;107.07;;;0.70;99.90;;;-0.72;100.00;96153.81;4990180;28;20891;-75
2022/04/02 01:52:36;;;;;;;405.88;120.00;;;0.70;99.90;;;-0.73;100.00;96151.41;4990524;28;20414;-75
2022/04/02 01:55:03;;;;;;;413.50;119.35;;;0.70;99.90;;;-0.72;100.00;96150.41;4987286;28;20423;-75
2022/04/02 01:57:30;;;;;;;406.85;118.93;;;0.70;99.90;;;-0.72;100.00;96148.59;5021678;28;20916;-75
2022/04/02 01:59:56;;;;;;;380.85;118.03;;;0.70;99.90;;;-0.77;100.00;96152.84;4990110;28;20409;-75
2022/04/02 02:02:22;;;;;;;425.58;120.30;;;0.70;99.90;;;-0.76;100.00;96150.03;4990082;28;20402;-75
2022/04/02 02:04:48;;;;;;;424.23;124.93;;;0.70;99.90;;;-0.75;100.00;96153.44;4990461;28;20407;-75
2022/04/02 02:07:14;;;;;;;421.42;120.00;;;0.70;99.90;;;-0.74;100.00;96160.19;4990137;28;20403;-75
2022/04/02 02:09:40;;;;;;;405.45;121.03;;;0.70;99.90;;;-0.81;100.00;96155.84;4990165;28;20491;-75
2022/04/02 02:12:08;;;;;;;398.50;111.77;;;0.70;99.90;;;-0.75;100.00;96161.22;4992831;28;20414;-75
2022/04/02 02:14:35;;;;;;;376.80;104.95;;;0.70;99.90;;;-0.76;100.00;96157.84;4993708;28;20433;-75
2022/04/02 02:17:02;;;;;;;372.48;111.80;;;0.70;99.90;;;-0.82;100.00;96167.25;5008573;28;20402;-75
2022/04/02 02:19:28;;;;;;;404.38;118.15;;;0.70;99.90;;;-0.75;100.00;96166.44;4993647;28;20935;-75
2022/04/02 02:21:53;;;;;;;362.17;114.70;;;0.70;99.90;;;-0.78;100.00;96170.22;4993303;28;20407;-75
2022/04/02 02:24:21;;;;;;;413.10;118.27;;;0.70;99.90;;;-0.77;100.00;96166.63;4992754;28;21773;-75
2022/04/02 02:26:47;;;;;;;339.25;110.40;;;0.70;99.90;;;-0.81;100.00;96178.44;4993508;28;20482;-75
2022/04/02 02:29:13;;;;;;;382.03;106.40;;;0.60;99.90;;;-0.76;100.00;96173.44;4993389;28;20417;-75
2022/04/02 02:31:40;;;;;;;367.83;107.80;;;0.70;99.90;;;-0.74;100.00;96181.00;4992957;28;20407;-76
2022/04/02 02:36:51;;;;;;;379.33;110.93;;;0.70;99.90;;;-0.73;100.00;96183.38;4993306;28;20433;-75
2022/04/02 02:39:17;;;;;;;396.85;114.30;;;0.70;99.90;;;-0.75;100.00;96189.81;4993032;28;20413;-75
2022/04/02 02:41:43;;;;;;;387.90;111.33;;;0.70;99.90;;;-0.73;100.00;96177.38;4992856;28;20762;-75
2022/04/02 02:44:09;;;;;;;381.30;108.75;;;0.70;99.90;;;-0.76;100.00;96189.00;4983000;28;20808;-76
2022/04/02 02:46:34;;;;;;;322.58;104.22;;;0.70;99.90;;;-0.79;100.00;96187.63;4993020;28;20510;-75
2022/04/02 02:49:02;;;;;;;366.80;107.38;;;0.70;99.90;;;-0.75;100.00;96190.56;4992941;28;20511;-76
2022/04/02 02:51:28;;;;;;;408.45;113.13;;;0.70;99.90;;;-0.75;100.00;96187.22;4992738;28;20418;-75
2022/04/02 02:53:54;;;;;;;340.02;107.47;;;0.70;99.90;;;-0.79;100.00;96189.41;4992925;28;20417;-75
2022/04/02 02:56:19;;;;;;;357.67;105.93;;;0.70;99.90;;;-0.76;100.00;96190.81;4992839;28;20477;-75
2022/04/02 02:58:45;;;;;;;353.50;103.47;;;0.70;99.90;;;-0.76;100.00;96188.22;4992863;28;20414;-75
2022/04/02 03:01:11;;;;;;;334.50;96.63;;;0.70;99.90;;;-0.75;100.00;96190.56;4992443;28;20900;-75
2022/04/02 03:03:38;;;;;;;355.45;104.25;;;0.70;99.90;;;-0.76;100.00;96196.00;4993257;28;20449;-75
2022/04/02 03:06:05;;;;;;;363.70;108.50;;;0.70;99.90;;;-0.75;100.00;96195.00;4993260;28;20402;-75
2022/04/02 03:08:31;;;;;;;321.95;100.22;;;0.70;99.90;;;-0.76;100.00;96196.00;4992820;28;20410;-75
2022/04/02 03:10:58;;;;;;;314.33;99.10;;;0.70;99.90;;;-0.79;100.00;96200.59;5007255;28;20421;-75
2022/04/02 03:13:24;;;;;;;349.00;105.68;;;0.70;99.90;;;-0.78;100.00;96198.81;4992675;28;20958;-75
2022/04/02 03:15:51;;;;;;;341.45;98.25;;;0.60;99.90;;;-0.78;100.00;96211.81;4992549;28;20420;-75
2022/04/02 03:18:17;;;;;;;343.45;102.97;;;0.70;99.90;;;-0.83;100.00;96207.22;4992529;28;20413;-75
2022/04/02 03:20:43;;;;;;;332.45;94.93;;;0.60;99.90;;;-0.81;100.00;96205.22;4992032;28;20403;-76
2022/04/02 03:23:11;;;;;;;325.70;93.80;;;0.70;99.90;;;-0.77;100.00;96210.81;4991338;28;20415;-76
2022/04/02 03:25:37;;;;;;;304.65;96.95;;;0.70;99.90;;;-0.82;100.00;96200.22;4992245;28;20410;-75
2022/04/02 03:28:06;;;;;;;310.58;94.13;;;0.60;99.90;;;-0.78;100.00;96217.00;4992090;28;20403;-75
2022/04/02 03:30:33;;;;;;;302.30;94.50;;;0.70;99.90;;;-0.79;100.00;96207.59;4990914;28;20409;-75
2022/04/02 03:32:59;;;;;;;324.17;97.40;;;0.70;99.90;;;-0.79;100.00;96212.81;4990184;28;20406;-76
2022/04/02 03:35:25;;;;;;;288.42;89.95;;;0.60;99.90;;;-0.79;100.00;96215.41;4992107;28;20423;-74
2022/04/02 03:37:52;;;;;;;280.50;92.53;;;0.60;99.90;;;-0.84;100.00;96218.63;4992013;28;20912;-75
2022/04/02 03:40:22;;;;;;;320.70;98.85;;;0.60;99.90;;;-0.81;100.00;96214.81;4991652;28;20406;-75
2022/04/02 03:42:49;;;;;;;291.13;91.95;;;0.60;99.90;;;-0.88;100.00;96222.63;4992117;28;20449;-76
2022/04/02 03:45:17;;;;;;;327.67;98.15;;;0.60;99.90;;;-0.84;100.00;96220.44;4991952;28;20407;-76
2022/04/02 03:47:45;;;;;;;275.02;89.47;;;0.60;99.90;;;-0.88;100.00;96221.84;5007252;23;20406;-78
2022/04/02 03:50:12;;;;;;;265.98;86.80;;;0.60;99.90;;;-0.92;100.00;96226.66;4998126;28;20406;-78
2022/04/02 03:52:38;;;;;;;247.93;85.85;;;0.60;99.90;;;-0.92;100.00;96229.25;4991964;28;20398;-78
2022/04/02 03:55:05;;;;;;;268.52;84.72;;;0.60;99.90;;;-0.93;100.00;96232.06;4992322;28;20422;-78
2022/04/02 03:57:34;;;;;;;227.65;79.30;;;0.50;99.90;;;-0.98;100.00;96227.50;4995142;28;20845;-78
2022/04/02 04:00:01;;;;;;;246.57;81.10;;;0.50;99.90;;;-0.98;100.00;96231.88;4991694;28;20796;-77
2022/04/02 04:02:27;;;;;;;255.63;82.30;;;0.50;99.90;;;-0.99;100.00;96238.09;4991556;28;20756;-77
2022/04/02 04:04:53;;;;;;;251.85;81.13;;;0.40;99.90;;;-1.05;100.00;96244.09;4987393;28;20418;-77
2022/04/02 04:07:19;;;;;;;224.43;77.32;;;0.40;99.90;;;-1.06;100.00;96245.09;4991695;28;20428;-77
2022/04/02 04:09:45;;;;;;;269.00;81.13;;;0.40;99.90;;;-1.03;100.00;96239.47;4991618;28;20403;-77
2022/04/02 04:12:11;;;;;;;230.48;76.10;;;0.40;99.90;;;-1.08;100.00;96247.91;4991162;28;20407;-78
2022/04/02 04:14:38;;;;;;;242.70;77.07;;;0.40;99.90;;;-1.06;100.00;96250.31;4991772;28;20398;-78
2022/04/02 04:17:04;;;;;;;231.52;74.38;;;0.40;99.90;;;-1.09;100.00;96248.09;4991677;28;20435;-78
2022/04/02 04:19:31;;;;;;;234.88;68.78;;;0.40;99.90;;;-1.06;100.00;96245.91;4988835;28;20418;-79
2022/04/02 04:21:57;;;;;;;218.65;67.97;;;0.40;99.90;;;-1.07;100.00;96246.91;4989447;28;20828;-79
2022/04/02 04:24:23;;;;;;;236.13;73.50;;;0.40;99.90;;;-1.07;100.00;96251.31;4991532;28;20410;-78
2022/04/02 04:26:49;;;;;;;227.27;74.95;;;0.40;99.90;;;-1.15;100.00;96241.94;4990111;28;20407;-79
2022/04/02 04:29:15;;;;;;;244.77;78.47;;;0.30;99.90;;;-1.12;100.00;96256.28;4991264;28;20417;-78
2022/04/02 04:31:42;;;;;;;271.33;80.50;;;0.30;99.90;;;-1.12;100.00;96253.69;4990925;28;20415;-78
2022/04/02 04:34:08;;;;;;;256.60;81.35;;;0.30;99.90;;;-1.11;100.00;96261.28;4991131;28;20410;-78
2022/04/02 04:36:34;;;;;;;265.60;83.87;;;0.40;99.90;;;-1.09;100.00;96268.88;4991048;28;20422;-78
2022/04/02 04:39:00;;;;;;;283.42;86.40;;;0.30;99.90;;;-1.12;100.00;96264.88;5006464;28;20522;-79
2022/04/02 04:41:26;;;;;;;276.98;85.72;;;0.40;99.90;;;-1.14;100.00;96266.09;4989686;28;20528;-78
2022/04/02 04:43:52;;;;;;;271.13;81.40;;;0.30;99.90;;;-1.13;100.00;96265.91;4991436;28;20406;-78
2022/04/02 04:46:20;;;;;;;305.60;88.80;;;0.30;99.90;;;-1.15;100.00;96269.69;4991235;28;20403;-78
2022/04/02 04:48:48;;;;;;;262.33;86.03;;;0.30;99.90;;;-1.15;100.00;96272.28;4991470;28;20548;-79
2022/04/02 04:51:15;;;;;;;249.27;84.35;;;0.30;99.90;;;-1.19;100.00;96267.50;4991055;28;20414;-78
2022/04/02 04:53:41;;;;;;;264.17;84.18;;;0.30;99.90;;;-1.22;100.00;96277.50;4991668;28;20402;-78
2022/04/02 04:56:08;;;;;;;325.13;91.33;;;0.30;99.90;;;-1.22;100.00;96278.31;4991310;28;20938;-79
2022/04/02 04:58:34;;;;;;;239.75;86.47;;;0.30;99.90;;;-1.25;100.00;96283.91;4991372;28;20903;-79
2022/04/02 05:01:00;;;;;;;292.02;89.30;;;0.20;99.90;;;-1.28;100.00;96276.50;4991029;28;20410;-79
2022/04/02 05:03:27;;;;;;;267.95;85.20;;;0.20;99.90;;;-1.31;100.00;96283.91;4991706;28;20903;-79
2022/04/02 05:05:56;;;;;;;306.85;88.82;;;0.20;99.90;;;-1.27;100.00;96282.50;4986029;28;20412;-77
2022/04/02 05:08:23;;;;;;;300.40;80.80;;;0.20;99.90;;;-1.27;100.00;96291.09;4989512;28;20426;-77
2022/04/02 05:10:51;;;;;;;276.63;81.13;;;0.20;99.90;;;-1.24;100.00;96292.50;4990752;28;20407;-77
2022/04/02 05:13:17;;;;;;;283.60;82.55;;;0.20;99.90;;;-1.25;100.00;96301.28;4990223;28;20449;-78
2022/04/02 05:15:43;;;;;;;279.17;77.85;;;0.20;99.90;;;-1.31;100.00;96300.28;4991473;28;20418;-78
2022/04/02 05:18:10;;;;;;;292.98;83.88;;;0.20;99.90;;;-1.31;100.00;96309.88;4991365;28;20813;-78
2022/04/02 05:20:38;;;;;;;275.50;81.93;;;0.20;99.90;;;-1.29;100.00;96305.28;4990710;28;20394;-78
2022/04/02 05:23:06;;;;;;;267.17;79.82;;;0.20;99.90;;;-1.29;100.00;96305.28;4991241;28;20486;-78
2022/04/02 05:25:33;;;;;;;255.83;76.53;;;0.20;99.90;;;-1.29;100.00;96311.28;5006388;28;20490;-79
2022/04/02 05:27:59;;;;;;;254.80;79.10;;;0.20;99.90;;;-1.26;100.00;96310.84;4991177;28;20427;-78
2022/04/02 05:30:27;;;;;;;255.50;77.63;;;0.20;99.90;;;-1.28;100.00;96319.88;4991040;28;20403;-78
2022/04/02 05:32:54;;;;;;;238.35;76.18;;;0.20;99.90;;;-1.28;100.00;96312.09;4991558;28;20633;-78
2022/04/02 05:35:20;;;;;;;275.17;78.78;;;0.20;99.90;;;-1.23;100.00;96320.84;4991716;28;20504;-78
2022/04/02 05:37:46;;;;;;;259.17;80.60;;;0.20;99.90;;;-1.24;100.00;96321.03;4991497;28;20441;-78
2022/04/02 05:40:13;;;;;;;258.83;77.85;;;0.20;99.90;;;-1.21;100.00;96328.44;4990952;28;20485;-78
2022/04/02 05:42:40;;;;;;;247.40;79.68;;;0.20;99.90;;;-1.21;100.00;96331.84;4991143;28;20417;-79
2022/04/02 05:45:07;;;;;;;261.45;79.28;;;0.30;99.90;;;-1.19;100.00;96335.00;4991859;28;20410;-77
2022/04/02 05:47:41;;;;;;;271.55;84.18;;;0.30;99.90;;;-1.19;100.00;96335.00;4995056;28;20410;-77
2022/04/02 05:50:10;;;;;;;250.25;75.18;;;0.30;99.90;;;-1.17;100.00;96335.59;4994831;28;20410;-77
2022/04/02 05:52:36;;;;;;;229.18;70.47;;;0.30;99.90;;;-1.14;100.00;96331.03;4995542;28;20819;-77
2022/04/02 05:55:02;;;;;;;223.48;75.05;;;0.30;99.90;;;-1.17;100.00;96340.00;4991979;28;20426;-76
2022/04/02 05:57:30;;;;;;;270.10;81.07;;;0.30;99.90;;;-1.16;100.00;96344.19;4994824;28;20971;-77
2022/04/02 05:59:57;;;;;;;239.48;78.22;;;0.30;99.90;;;-1.17;100.00;96340.00;4994429;28;20903;-78
2022/04/02 06:02:22;;;;;;;240.38;73.63;;;0.30;99.90;;;-1.14;100.00;96342.19;4994437;28;20402;-78
2022/04/02 06:04:48;;;;;;;231.27;71.50;;;0.30;99.90;;;-1.12;100.00;96347.97;5009932;28;20411;-77
2022/04/02 06:07:14;;;;;;;257.02;77.00;;;0.30;99.90;;;-1.11;100.00;96349.56;4994678;28;20963;-77
2022/04/02 06:09:40;;;;;;;245.35;76.85;;;0.30;99.90;;;-1.09;100.00;96352.78;4995086;28;20408;-77
2022/04/02 06:12:07;;;;;;;239.13;77.18;;;0.30;99.90;;;-1.12;100.00;96354.97;4998650;28;20409;-77
2022/04/02 06:14:34;;;;;;;196.73;66.82;;;0.30;99.90;;;-1.06;100.00;96348.97;4997551;28;20415;-77
2022/04/02 06:17:00;;;;;;;235.02;76.07;;;0.40;99.90;;;-1.09;100.00;96350.16;4995481;28;20419;-79
2022/04/02 06:19:26;;;;;;;225.88;75.35;;;0.40;99.90;;;-1.09;100.00;96354.56;5003255;28;20861;-79
2022/04/02 06:21:52;;;;;;;220.48;74.25;;;0.30;99.90;;;-1.08;100.00;96361.38;5003853;28;20406;-77
2022/04/02 06:24:18;;;;;;;235.70;74.20;;;0.30;99.90;;;-1.08;100.00;96362.16;4993898;28;20471;-78
2022/04/02 06:26:44;;;;;;;239.02;74.75;;;0.30;99.90;;;-1.03;100.00;96364.94;4993709;28;20433;-79
2022/04/02 06:29:10;;;;;;;220.97;74.70;;;0.40;99.90;;;-0.99;100.00;96373.13;4993664;28;20410;-78
2022/04/02 06:31:39;;;;;;;212.35;68.38;;;0.40;99.90;;;-0.95;100.00;96371.72;4993549;28;20445;-79
2022/04/02 06:34:05;;;;;;;204.87;67.83;;;0.50;99.90;;;-0.91;100.00;96375.50;4993643;28;20406;-79
2022/04/02 06:36:31;;;;;;;220.00;70.25;;;0.50;99.90;;;-0.89;100.00;96379.47;4993695;28;20485;-79
2022/04/02 06:38:57;;;;;;;196.20;71.03;;;0.50;99.90;;;-0.93;100.00;96374.91;4993637;28;20409;-79
2022/04/02 06:41:23;;;;;;;208.07;71.18;;;0.50;99.90;;;-0.96;100.00;96391.69;4993261;28;20453;-78
2022/04/02 06:43:49;;;;;;;198.57;67.97;;;0.50;99.90;;;-0.93;100.00;96382.72;4987070;28;20458;-78
2022/04/02 06:46:15;;;;;;;195.10;68.05;;;0.50;99.90;;;-0.94;100.00;96392.28;4993422;28;20434;-78
2022/04/02 06:48:42;;;;;;;201.57;70.10;;;0.50;99.90;;;-0.95;100.00;96390.69;4992275;28;20505;-77
2022/04/02 06:51:09;;;;;;;199.75;65.80;;;0.50;99.90;;;-0.91;100.00;96391.91;4991455;28;20406;-74
2022/04/02 06:53:35;;;;;;;204.73;67.97;;;0.50;99.90;;;-0.94;100.00;96397.50;4990297;28;20414;-74
2022/04/02 06:56:01;;;;;;;186.52;64.43;;;0.50;99.90;;;-0.95;100.00;96405.47;4991326;28;20421;-73
2022/04/02 06:58:31;;;;;;;184.93;63.28;;;0.50;99.90;;;-0.88;100.00;96401.88;4990490;28;20498;-75
2022/04/02 07:00:58;;;;;;;171.70;62.88;;;0.50;99.90;;;-0.92;100.00;96405.09;4992110;28;20401;-74
2022/04/02 07:03:24;;;;;;;201.57;66.05;;;0.50;99.90;;;-0.84;100.00;96410.88;4990225;28;20689;-74
2022/04/02 07:05:51;;;;;;;208.63;65.40;;;0.60;99.90;;;-0.87;100.00;96403.47;4991709;28;20963;-76
2022/04/02 07:08:18;;;;;;;188.05;62.55;;;0.50;99.90;;;-0.86;100.00;96419.84;4993105;28;20475;-73
2022/04/02 07:10:44;;;;;;;204.85;64.72;;;0.60;99.90;;;-0.83;100.00;96420.22;4990965;28;20402;-74
2022/04/02 07:13:10;;;;;;;190.95;59.80;;;0.60;99.90;;;-0.82;100.00;96431.44;4991152;28;20417;-75
2022/04/02 07:15:38;;;;;;;189.77;62.03;;;0.60;99.90;;;-0.83;100.00;96428.03;4993918;28;20423;-74
2022/04/02 07:18:07;;;;;;;203.52;63.72;;;0.60;99.90;;;-0.87;100.00;96433.84;4991036;28;20912;-76
2022/04/02 07:20:35;;;;;;;177.77;60.90;;;0.50;99.90;;;-0.89;100.00;96439.22;4991369;28;20399;-75
2022/04/02 07:23:04;;;;;;;166.30;58.72;;;0.50;99.90;;;-0.90;100.00;96440.22;4998363;28;20428;-75
2022/04/02 07:25:31;;;;;;;181.50;58.88;;;0.60;99.90;;;-0.89;100.00;96446.22;5011585;28;20401;-77
2022/04/02 07:27:58;;;;;;;182.05;60.90;;;0.60;99.90;;;-0.88;100.00;96456.41;5011878;28;20737;-76
2022/04/02 07:30:25;;;;;;;175.10;57.40;;;0.60;99.90;;;-0.87;100.00;96457.22;5011447;28;20428;-78
2022/04/02 07:32:51;;;;;;;199.27;62.08;;;0.60;99.90;;;-0.94;100.00;96459.81;4984181;28;20421;-78
2022/04/02 07:35:18;;;;;;;185.15;59.45;;;0.50;99.90;;;-0.94;100.00;96472.00;4991734;28;20924;-78
2022/04/02 07:37:59;;;;;;;182.07;57.77;;;0.50;99.90;;;-0.89;100.00;96470.41;4992718;28;20485;-78
2022/04/02 07:40:35;;;;;;;178.23;58.95;;;0.50;99.90;;;-0.94;100.00;96472.00;4990859;28;20402;-78
2022/04/02 07:43:09;;;;;;;165.07;57.20;;;0.50;99.90;;;-0.91;100.00;96484.63;4991750;28;20485;-79
2022/04/02 07:45:40;;;;;;;197.25;60.03;;;0.50;99.90;;;-0.90;100.00;96481.00;4991810;28;20398;-76
2022/04/02 07:48:08;;;;;;;185.70;57.55;;;0.50;99.90;;;-0.87;100.00;96483.19;4930974;28;1726924;-76
2022/04/02 07:50:41;;;;;;;184.10;59.50;;;0.60;99.90;;;-0.89;100.00;96486.00;4991215;28;20923;-76
2022/04/02 07:53:14;;;;;;;175.80;55.55;;;0.50;99.90;;;-0.87;100.00;96480.59;4994518;28;20414;-75
2022/04/02 07:55:47;;;;;;;188.07;59.43;;;0.60;99.90;;;-0.85;100.00;96495.00;4991516;28;20955;-74
2022/04/02 07:58:15;;;;;;;163.20;56.47;;;0.60;99.90;;;-0.92;100.00;96489.00;5003652;28;20435;-73
2022/04/02 08:00:42;;;;;;;170.83;54.93;;;0.50;99.90;;;-0.84;100.00;96496.59;4990500;28;20987;-74
2022/04/02 08:03:09;;;;;;;185.88;55.95;;;0.60;99.90;;;-0.80;100.00;96497.78;4997388;28;20406;-74
2022/04/02 08:05:35;;;;;;;178.48;54.47;;;0.60;99.90;;;-0.76;100.00;96503.38;4991610;28;20401;-73
2022/04/02 08:08:05;;;;;;;151.82;49.88;;;0.70;99.90;;;-0.67;100.00;96506.56;5005656;28;20408;-74
2022/04/02 08:10:31;;;;;;;174.05;55.60;;;0.70;99.90;;;-0.69;100.00;96504.19;4994505;28;20966;-73
2022/04/02 08:13:00;;;;;;;173.20;55.05;;;0.70;99.90;;;-0.71;100.00;96508.75;5007593;28;20406;-76
2022/04/02 08:15:26;;;;;;;167.48;55.55;;;0.70;99.90;;;-0.73;100.00;96517.75;4998875;28;20818;-76
2022/04/02 08:17:54;;;;;;;142.93;51.90;;;0.70;99.90;;;-0.77;100.00;96524.38;5000270;28;20443;-75
2022/04/02 08:20:21;;;;;;;142.70;53.28;;;0.70;99.90;;;-0.76;100.00;96526.78;4991381;28;20425;-76
2022/04/02 08:22:47;;;;;;;170.32;55.40;;;0.60;99.90;;;-0.73;100.00;96525.56;4994720;28;20414;-76
2022/04/02 08:25:14;;;;;;;147.52;52.35;;;0.70;99.90;;;-0.71;100.00;96536.56;4995665;28;20411;-75
2022/04/02 08:28:01;;;;;;;166.77;54.33;;;0.70;99.90;;;-0.64;100.00;96534.75;4992633;28;20478;-75
2022/04/02 08:30:33;;;;;;;154.65;50.90;;;0.70;99.90;;;-0.58;100.00;96539.13;4988896;28;20414;-76
2022/04/02 08:33:38;;;;;;;170.10;54.03;;;0.80;99.90;;;-0.55;100.00;96541.34;4995008;28;20401;-77
2022/04/02 08:36:17;;;;;;;168.20;52.42;;;0.80;99.90;;;-0.55;100.00;96549.13;4998000;28;20530;-77
2022/04/02 08:38:53;;;;;;;152.77;54.35;;;0.90;99.90;;;-0.66;100.00;96550.53;5008694;28;20405;-75
2022/04/02 08:42:24;;;;;;;157.40;51.67;;;0.80;99.90;;;-0.60;100.00;96554.16;5002171;28;20422;-75
2022/04/02 08:45:07;;;;;;;179.45;56.25;;;0.80;99.90;;;-0.56;100.00;96556.13;4996563;28;20467;-76
2022/04/02 08:48:23;;;;;;;196.38;59.13;;;0.80;99.90;;;-0.60;100.00;96565.31;4999364;28;20997;-74
2022/04/02 08:50:55;;;;;;;177.55;56.10;;;0.80;99.90;;;-0.58;100.00;96571.13;4989885;28;20417;-75
2022/04/02 08:53:42;;;;;;;185.77;58.13;;;0.80;99.90;;;-0.57;100.00;96571.91;4989593;28;21106;-74
2022/04/02 08:56:16;;;;;;;195.23;60.20;;;0.80;99.90;;;-0.55;100.00;96583.72;4991784;28;20422;-75
2022/04/02 08:58:58;;;;;;;197.10;64.28;;;0.80;99.90;;;-0.58;100.00;96591.09;4997086;28;20409;-75
2022/04/02 09:01:27;;;;;;;193.90;61.63;;;0.90;99.90;;;-0.56;100.00;96591.72;5010201;28;20763;-75
2022/04/02 09:05:01;;;;;;;197.55;61.80;;;0.90;99.90;;;-0.58;100.00;96588.50;4995203;28;20406;-75
2022/04/02 09:08:22;;;;;;;192.57;59.92;;;0.80;99.90;;;-0.46;100.00;96603.31;4980316;28;20420;-75
2022/04/02 09:11:25;;;;;;;181.75;61.22;;;0.90;99.90;;;-0.51;100.00;96608.31;4994544;28;20397;-76
2022/04/02 09:14:30;;;;;;;186.60;58.30;;;0.90;99.90;;;-0.42;100.00;96607.09;4928352;29;20515;-77
2022/04/02 09:17:10;;;;;;;197.70;61.47;;;1.00;99.90;;;-0.42;100.00;96609.72;4929920;28;21351;-78
2022/04/02 09:20:08;;;;;;;201.02;60.15;;;1.00;99.90;;;-0.31;100.00;96615.31;4985256;28;20480;-78
2022/04/02 09:22:39;;;;;;;190.38;60.67;;;1.00;99.90;;;-0.43;100.00;96622.91;4993515;28;20435;-76
2022/04/02 09:26:01;;;;;;;196.63;63.53;;;0.90;99.90;;;-0.38;100.00;96623.13;4996156;28;20411;-78
2022/04/02 09:28:46;;;;;;;182.57;61.78;;;0.90;99.90;;;-0.36;100.00;96622.91;4993467;28;20761;-78
2022/04/02 09:32:06;;;;;;;185.15;59.13;;;1.00;99.90;;;-0.29;100.00;96626.28;5010097;28;20439;-76
2022/04/02 09:35:31;;;;;;;206.70;59.72;;;1.10;99.90;;;-0.17;100.00;96629.91;5013410;28;20412;-76
2022/04/02 09:38:42;;;;;;;187.43;60.20;;;1.10;99.90;;;-0.24;100.00;96629.91;5013373;28;20412;-77
2022/04/02 09:41:23;;;;;;;220.55;64.95;;;1.20;99.90;;;-0.34;100.00;96628.69;5013055;28;20401;-77
2022/04/02 09:44:05;;;;;;;183.75;63.47;;;1.10;99.90;;;-0.48;100.00;96635.72;5014932;28;20842;-77
2022/04/02 09:47:00;;;;;;;201.98;60.10;;;1.00;99.90;;;-0.26;100.00;96649.31;5014925;28;20396;-77
2022/04/02 09:49:40;;;;;;;198.40;62.90;;;1.10;99.90;;;-0.32;100.00;96647.50;5027922;22;20535;-85
2022/04/02 09:52:09;;;;;;;202.52;64.13;;;1.10;99.90;;;-0.35;100.00;96648.69;5028857;28;20408;-87
2022/04/02 09:54:45;;;;;;;188.90;63.78;;;1.10;99.90;;;-0.48;100.00;96651.31;5013273;28;20406;-82
2022/04/02 09:57:25;;;;;;;221.93;63.42;;;0.90;99.90;;;-0.42;100.00;96655.69;5012805;28;20495;-76
2022/04/02 10:00:04;;;;;;;205.65;64.43;;;1.00;99.90;;;-0.50;100.00;96653.28;5011070;28;20976;-74
2022/04/02 10:02:57;;;;;;;229.05;65.88;;;0.90;99.90;;;-0.54;100.00;96650.31;5013322;28;20403;-76
2022/04/02 10:05:33;;;;;;;209.55;64.50;;;0.90;99.90;;;-0.59;100.00;96657.09;5013819;28;20809;-76
2022/04/02 10:08:05;;;;;;;224.10;66.68;;;0.80;99.90;;;-0.50;100.00;96656.69;5013658;28;20393;-76
2022/04/02 10:10:32;;;;;;;211.07;64.43;;;0.90;99.90;;;-0.45;100.00;96659.50;5011840;28;20474;-75
2022/04/02 10:12:58;;;;;;;213.10;65.03;;;0.90;99.90;;;-0.31;100.00;96669.91;5013097;28;20413;-75